createdAt,value
2023-05-16T00:01:04.906Z,12.70
2023-05-16T00:03:33.105Z,11.60
2023-05-16T00:06:02.526Z,12.00
2023-05-16T00:08:30.395Z,12.70
2023-05-16T00:10:58.323Z,12.00
2023-05-16T00:13:26.339Z,11.90
2023-05-16T00:15:55.421Z,12.10
2023-05-16T00:18:23.519Z,11.10
2023-05-16T00:20:52.421Z,12.50
2023-05-16T00:23:20.425Z,11.50
2023-05-16T00:25:49.128Z,12.10
2023-05-16T00:28:17.403Z,10.60
2023-05-16T00:30:45.288Z,11.40
2023-05-16T00:33:13.225Z,10.70
2023-05-16T00:35:41.292Z,10.50
2023-05-16T00:38:09.201Z,10.20
2023-05-16T00:40:37.201Z,10.40
2023-05-16T00:43:05.164Z,10.50
2023-05-16T00:45:33.083Z,11.10
2023-05-16T00:48:01.081Z,10.60
2023-05-16T00:50:29.171Z,10.60
2023-05-16T00:52:57.283Z,10.10
2023-05-16T00:55:25.359Z,10.50
2023-05-16T00:57:53.403Z,10.40
2023-05-16T01:00:21.663Z,10.50
2023-05-16T01:02:51.966Z,10.50
2023-05-16T01:05:22.641Z,10.50
2023-05-16T01:07:50.636Z,10.70
2023-05-16T01:10:18.497Z,10.90
2023-05-16T01:13:12.851Z,10.60
2023-05-16T01:15:49.372Z,10.70
2023-05-16T01:18:37.381Z,11.10
2023-05-16T01:21:17.158Z,11.00
2023-05-16T01:24:05.325Z,11.00
2023-05-16T01:26:35.956Z,11.50
2023-05-16T01:29:04.815Z,11.40
2023-05-16T01:31:32.972Z,11.60
2023-05-16T01:34:01.736Z,12.10
2023-05-16T01:36:48.225Z,11.10
2023-05-16T01:39:44.090Z,11.90
2023-05-16T01:42:16.376Z,11.50
2023-05-16T01:44:52.874Z,11.60
2023-05-16T01:47:25.489Z,11.00
2023-05-16T01:50:15.191Z,11.50
2023-05-16T01:52:56.638Z,10.70
2023-05-16T01:55:46.688Z,10.50
2023-05-16T01:58:15.920Z,10.30
2023-05-16T02:00:44.836Z,9.80
2023-05-16T02:03:13.276Z,9.90
2023-05-16T02:05:41.328Z,10.00
2023-05-16T02:08:12.302Z,9.20
2023-05-16T02:10:41.394Z,9.00
2023-05-16T02:13:09.609Z,9.00
2023-05-16T02:15:37.885Z,8.90
2023-05-16T02:18:06.200Z,8.10
2023-05-16T02:20:34.165Z,9.20
2023-05-16T02:23:03.378Z,8.70
2023-05-16T02:25:33.458Z,9.10
2023-05-16T02:28:01.429Z,8.50
2023-05-16T02:30:29.371Z,8.60
2023-05-16T02:32:57.421Z,9.00
2023-05-16T02:35:25.913Z,9.20
2023-05-16T02:37:54.139Z,9.40
2023-05-16T02:40:22.045Z,8.30
2023-05-16T02:42:49.920Z,9.00
2023-05-16T02:45:17.772Z,7.90
2023-05-16T02:47:45.745Z,8.70
2023-05-16T02:50:13.775Z,8.40
2023-05-16T02:52:41.702Z,7.90
2023-05-16T02:55:21.573Z,8.40
2023-05-16T02:57:51.068Z,8.00
2023-05-16T03:00:19.807Z,9.10
2023-05-16T03:02:49.138Z,8.30
2023-05-16T03:05:17.486Z,7.70
2023-05-16T03:07:46.627Z,8.20
2023-05-16T03:10:14.566Z,7.90
2023-05-16T03:12:42.820Z,8.10
2023-05-16T03:15:11.156Z,9.00
2023-05-16T03:17:39.114Z,8.20
2023-05-16T03:20:09.159Z,8.60
2023-05-16T03:22:37.260Z,8.00
2023-05-16T03:25:05.827Z,8.10
2023-05-16T03:27:33.740Z,7.70
2023-05-16T03:30:01.636Z,8.20
2023-05-16T03:32:29.849Z,7.60
2023-05-16T03:34:57.828Z,8.10
2023-05-16T03:37:26.582Z,7.50
2023-05-16T03:39:54.624Z,7.30
2023-05-16T03:42:22.529Z,6.90
2023-05-16T03:44:50.482Z,7.00
2023-05-16T03:47:18.386Z,6.90
2023-05-16T03:49:46.315Z,6.70
2023-05-16T03:52:14.387Z,6.60
2023-05-16T03:54:42.266Z,6.70
2023-05-16T03:57:10.236Z,6.10
2023-05-16T03:59:39.078Z,6.10
2023-05-16T04:02:07.205Z,7.20
2023-05-16T04:04:35.232Z,6.30
2023-05-16T04:07:03.401Z,5.90
2023-05-16T04:09:31.416Z,5.70
2023-05-16T04:12:01.986Z,5.90
2023-05-16T04:14:29.925Z,5.50
2023-05-16T04:16:58.010Z,5.60
2023-05-16T04:19:26.174Z,6.10
2023-05-16T04:21:54.126Z,6.50
2023-05-16T04:24:26.314Z,7.00
2023-05-16T04:26:54.490Z,5.70
2023-05-16T04:29:22.516Z,6.40
2023-05-16T04:31:50.548Z,5.60
2023-05-16T04:34:18.658Z,5.50
2023-05-16T04:36:46.662Z,5.70
2023-05-16T04:39:14.579Z,5.10
2023-05-16T04:41:42.515Z,4.90
2023-05-16T04:44:11.265Z,4.80
2023-05-16T04:46:39.495Z,5.10
2023-05-16T04:49:07.558Z,5.20
2023-05-16T04:51:35.589Z,5.00
2023-05-16T04:54:03.507Z,4.30
2023-05-16T04:56:31.534Z,4.20
2023-05-16T04:58:59.361Z,4.20
2023-05-16T05:01:27.795Z,4.10
2023-05-16T05:03:56.024Z,4.10
2023-05-16T05:06:23.931Z,3.90
2023-05-16T05:08:51.812Z,4.10
2023-05-16T05:11:19.779Z,4.10
2023-05-16T05:13:47.705Z,4.30
2023-05-16T05:16:15.613Z,3.80
2023-05-16T05:18:44.467Z,3.60
2023-05-16T05:21:12.533Z,3.90
2023-05-16T05:23:40.598Z,4.20
2023-05-16T05:26:08.592Z,4.00
2023-05-16T05:28:37.811Z,4.00
2023-05-16T05:31:06.059Z,3.90
2023-05-16T05:33:33.952Z,4.10
2023-05-16T05:36:03.965Z,3.80
2023-05-16T05:38:32.209Z,4.30
2023-05-16T05:41:00.106Z,3.50
2023-05-16T05:43:28.389Z,4.20
2023-05-16T05:45:56.509Z,3.60
2023-05-16T05:48:24.458Z,4.30
2023-05-16T05:50:53.166Z,4.20
2023-05-16T05:53:21.227Z,4.60
2023-05-16T05:55:49.162Z,4.50
2023-05-16T05:58:18.264Z,4.20
2023-05-16T06:00:46.187Z,4.60
2023-05-16T06:03:14.708Z,4.70
2023-05-16T06:05:43.021Z,4.90
2023-05-16T06:08:11.126Z,4.70
2023-05-16T06:10:39.012Z,3.90
2023-05-16T06:13:06.937Z,4.80
2023-05-16T06:15:34.848Z,5.00
2023-05-16T06:18:02.750Z,5.30
2023-05-16T06:20:31.041Z,3.90
2023-05-16T06:22:59.037Z,4.20
2023-05-16T06:25:27.265Z,4.90
2023-05-16T06:27:55.552Z,5.40
2023-05-16T06:30:23.507Z,4.70
2023-05-16T06:32:51.424Z,5.00
2023-05-16T06:35:19.302Z,5.40
2023-05-16T06:37:47.464Z,5.60
2023-05-16T06:40:15.415Z,5.10
2023-05-16T06:42:43.376Z,4.90
2023-05-16T06:45:13.251Z,5.10
2023-05-16T06:47:41.679Z,5.50
2023-05-16T06:50:11.021Z,4.70
2023-05-16T06:52:39.065Z,5.00
2023-05-16T06:55:07.327Z,5.10
2023-05-16T06:57:35.874Z,5.20
2023-05-16T07:00:04.379Z,5.20
2023-05-16T07:02:32.539Z,4.80
2023-05-16T07:05:00.651Z,6.00
2023-05-16T07:07:29.209Z,5.40
2023-05-16T07:09:57.212Z,6.90
2023-05-16T07:12:25.356Z,5.90
2023-05-16T07:14:53.312Z,6.10
2023-05-16T07:17:21.319Z,6.10
2023-05-16T07:19:50.289Z,6.60
2023-05-16T07:22:18.241Z,6.70
2023-05-16T07:24:46.327Z,9.40
2023-05-16T07:27:14.305Z,9.40
2023-05-16T07:29:42.331Z,9.90
2023-05-16T07:32:10.395Z,7.10
2023-05-16T07:34:38.570Z,11.00
2023-05-16T07:37:12.846Z,8.60
2023-05-16T07:39:40.870Z,10.50
2023-05-16T07:42:09.298Z,11.00
2023-05-16T07:44:37.270Z,12.70
2023-05-16T07:47:05.299Z,12.50
2023-05-16T07:49:33.399Z,11.90
2023-05-16T07:52:01.336Z,12.50
2023-05-16T07:54:29.319Z,11.10
2023-05-16T07:56:57.461Z,11.40
2023-05-16T07:59:25.594Z,13.40
2023-05-16T08:01:54.823Z,13.30
2023-05-16T08:04:22.852Z,12.50
2023-05-16T08:06:50.922Z,14.10
2023-05-16T08:09:19.313Z,10.70
2023-05-16T08:11:47.321Z,13.80
2023-05-16T08:14:15.274Z,13.90
2023-05-16T08:16:43.316Z,13.50
2023-05-16T08:19:11.400Z,13.60
2023-05-16T08:21:39.424Z,15.60
2023-05-16T08:24:07.806Z,16.00
2023-05-16T08:26:37.474Z,13.70
2023-05-16T08:29:05.416Z,15.50
2023-05-16T08:31:33.390Z,15.60
2023-05-16T08:34:01.831Z,15.20
2023-05-16T08:36:29.723Z,16.20
2023-05-16T08:38:57.635Z,14.40
2023-05-16T08:41:26.048Z,15.00
2023-05-16T08:43:54.645Z,14.80
2023-05-16T08:46:24.253Z,15.80
2023-05-16T08:48:54.001Z,16.10
2023-05-16T08:51:25.378Z,16.70
2023-05-16T08:54:01.386Z,16.60
2023-05-16T08:56:29.904Z,15.20
2023-05-16T08:58:58.697Z,17.70
2023-05-16T09:01:27.021Z,16.40
2023-05-16T09:03:55.581Z,18.30
2023-05-16T09:06:23.641Z,15.70
2023-05-16T09:08:52.385Z,17.10
2023-05-16T09:11:20.284Z,18.70
2023-05-16T09:13:49.177Z,16.80
2023-05-16T09:16:19.300Z,17.60
2023-05-16T09:18:56.985Z,20.10
2023-05-16T09:21:29.039Z,20.10
2023-05-16T09:23:56.964Z,19.20
2023-05-16T09:26:26.250Z,19.00
2023-05-16T09:28:56.032Z,18.30
2023-05-16T09:31:26.848Z,21.10
2023-05-16T09:33:57.893Z,19.40
2023-05-16T09:36:26.234Z,21.40
2023-05-16T09:38:54.328Z,20.90
2023-05-16T09:41:22.874Z,19.10
2023-05-16T09:43:51.117Z,19.60
2023-05-16T09:46:20.018Z,19.60
2023-05-16T09:48:48.249Z,17.60
2023-05-16T09:51:16.454Z,18.70
2023-05-16T09:53:44.476Z,18.10
2023-05-16T09:56:15.788Z,20.10
2023-05-16T09:58:44.998Z,20.40
2023-05-16T10:01:13.120Z,20.70
2023-05-16T10:03:42.799Z,21.70
2023-05-16T10:06:15.011Z,22.90
2023-05-16T10:08:43.859Z,18.90
2023-05-16T10:11:12.410Z,22.60
2023-05-16T10:13:40.568Z,24.60
2023-05-16T10:16:11.880Z,20.20
2023-05-16T10:18:41.412Z,24.20
2023-05-16T10:21:15.186Z,24.60
2023-05-16T10:23:47.618Z,23.70
2023-05-16T10:26:17.624Z,24.00
2023-05-16T10:28:45.869Z,24.10
2023-05-16T10:31:15.377Z,22.00
2023-05-16T10:33:43.866Z,20.30
2023-05-16T10:36:12.481Z,25.50
2023-05-16T10:38:41.220Z,25.50
2023-05-16T10:41:10.366Z,26.50
2023-05-16T10:43:38.411Z,22.70
2023-05-16T10:46:12.639Z,26.00
2023-05-16T10:48:42.392Z,23.20
2023-05-16T10:51:22.293Z,25.40
2023-05-16T10:53:54.742Z,23.50
2023-05-16T10:56:27.329Z,25.60
2023-05-16T10:58:56.995Z,25.30
2023-05-16T11:01:28.155Z,23.60
2023-05-16T11:03:59.674Z,23.70
2023-05-16T11:06:45.846Z,28.50
2023-05-16T11:09:16.447Z,26.40
2023-05-16T11:11:49.178Z,26.80
2023-05-16T11:14:20.186Z,28.30
2023-05-16T11:17:00.427Z,27.40
2023-05-16T11:19:30.684Z,28.10
2023-05-16T11:22:25.021Z,27.80
2023-05-16T11:25:07.476Z,27.80
2023-05-16T11:27:41.822Z,27.80
2023-05-16T11:30:14.328Z,24.90
2023-05-16T11:32:44.484Z,26.80
2023-05-16T11:35:15.439Z,27.30
2023-05-16T11:37:45.031Z,28.20
2023-05-16T11:40:14.042Z,30.20
2023-05-16T11:42:47.754Z,29.20
2023-05-16T11:47:47.804Z,27.70
2023-05-16T11:50:18.129Z,28.80
2023-05-16T11:52:48.864Z,27.70
2023-05-16T11:55:28.157Z,26.90
2023-05-16T11:58:06.771Z,26.30
2023-05-16T12:00:34.756Z,26.30
2023-05-16T12:03:05.851Z,25.30
2023-05-16T12:05:35.568Z,25.50
2023-05-16T12:08:05.077Z,25.30
2023-05-16T12:10:36.181Z,27.70
2023-05-16T12:13:04.688Z,28.40
2023-05-16T12:15:33.456Z,28.50
2023-05-16T12:18:02.461Z,29.10
2023-05-16T12:20:30.805Z,27.60
2023-05-16T12:22:59.183Z,26.90
2023-05-16T12:25:37.519Z,27.20
2023-05-16T12:28:07.863Z,28.30
2023-05-16T12:30:35.842Z,36.70
2023-05-16T12:33:09.910Z,31.80
2023-05-16T12:35:40.259Z,35.60
2023-05-16T12:38:13.169Z,34.10
2023-05-16T12:40:43.597Z,27.20
2023-05-16T12:43:21.159Z,29.30
2023-05-16T12:45:54.694Z,30.20
2023-05-16T12:50:51.527Z,27.60
2023-05-16T12:53:19.677Z,27.20
2023-05-16T12:55:48.010Z,30.50
2023-05-16T12:58:17.760Z,30.10
2023-05-16T13:00:45.964Z,30.50
2023-05-16T13:03:14.110Z,31.30
2023-05-16T13:05:42.321Z,32.10
2023-05-16T13:08:10.382Z,31.50
2023-05-16T13:10:38.351Z,31.30
2023-05-16T13:13:06.312Z,30.80
2023-05-16T13:15:34.241Z,30.90
2023-05-16T13:18:02.338Z,30.40
2023-05-16T13:20:30.824Z,30.50
2023-05-16T13:22:58.889Z,30.70
2023-05-16T13:25:27.133Z,28.90
2023-05-16T13:27:55.489Z,31.20
2023-05-16T13:30:24.640Z,30.20
2023-05-16T13:32:52.806Z,31.50
2023-05-16T13:35:21.837Z,28.80
2023-05-16T13:37:49.856Z,29.40
2023-05-16T13:40:17.884Z,29.20
2023-05-16T13:42:45.934Z,29.20
2023-05-16T13:45:13.901Z,30.50
2023-05-16T13:47:41.898Z,28.60
2023-05-16T13:50:10.537Z,28.40
2023-05-16T13:52:39.295Z,28.20
2023-05-16T13:55:08.189Z,27.50
2023-05-16T13:57:36.714Z,28.70
2023-05-16T14:00:44.120Z,26.80
2023-05-16T14:03:00.611Z,26.50
2023-05-16T14:05:29.312Z,26.20
2023-05-16T14:07:57.307Z,26.80
2023-05-16T14:10:25.245Z,26.30
2023-05-16T14:12:53.318Z,26.40
2023-05-16T14:15:21.366Z,27.10
2023-05-16T14:17:49.424Z,26.10
2023-05-16T14:20:17.393Z,25.10
2023-05-16T14:22:45.375Z,24.90
2023-05-16T14:25:13.359Z,25.30
2023-05-16T14:27:41.476Z,25.00
2023-05-16T14:30:09.852Z,26.50
2023-05-16T14:32:37.964Z,25.20
2023-05-16T14:35:06.530Z,25.00
2023-05-16T14:37:34.518Z,25.50
2023-05-16T14:40:04.502Z,23.90
2023-05-16T14:42:32.511Z,24.20
2023-05-16T14:45:01.484Z,24.00
2023-05-16T14:47:31.513Z,23.70
2023-05-16T14:50:00.935Z,23.70
2023-05-16T14:52:29.425Z,24.10
2023-05-16T14:55:00.161Z,22.10
2023-05-16T14:57:28.124Z,23.20
2023-05-16T14:59:56.082Z,21.70
2023-05-16T15:02:24.414Z,22.60
2023-05-16T15:04:53.092Z,22.70
2023-05-16T15:07:21.177Z,22.70
2023-05-16T15:09:49.129Z,22.80
2023-05-16T15:12:17.318Z,21.70
2023-05-16T15:14:45.381Z,21.80
2023-05-16T15:17:13.308Z,21.10
2023-05-16T15:19:41.380Z,19.70
2023-05-16T15:22:10.944Z,18.80
2023-05-16T15:24:38.923Z,17.80
2023-05-16T15:27:06.987Z,18.30
2023-05-16T15:29:34.942Z,16.90
2023-05-16T15:32:06.753Z,18.00
2023-05-16T15:34:35.676Z,17.10
2023-05-16T15:37:03.935Z,17.40
2023-05-16T15:39:32.380Z,16.90
2023-05-16T15:42:10.571Z,17.40
2023-05-16T15:44:39.947Z,16.40
2023-05-16T15:47:09.429Z,16.30
2023-05-16T15:49:37.632Z,17.30
2023-05-16T15:52:06.199Z,18.70
2023-05-16T15:54:34.453Z,18.20
2023-05-16T15:57:02.475Z,17.60
2023-05-16T15:59:30.434Z,19.60
2023-05-16T16:01:58.452Z,16.90
2023-05-16T16:04:26.537Z,18.70
2023-05-16T16:06:54.556Z,18.10
2023-05-16T16:09:22.651Z,17.90
2023-05-16T16:11:52.383Z,20.00
2023-05-16T16:14:20.368Z,18.70
2023-05-16T16:16:48.281Z,18.60
2023-05-16T16:19:16.765Z,19.70
2023-05-16T16:21:44.829Z,18.00
2023-05-16T16:24:13.587Z,17.70
2023-05-16T16:26:42.943Z,18.60
2023-05-16T16:29:10.976Z,18.60
2023-05-16T16:31:38.954Z,19.60
2023-05-16T16:34:07.361Z,18.90
2023-05-16T16:36:35.433Z,20.00
2023-05-16T16:39:05.426Z,19.50
2023-05-16T16:41:33.582Z,19.00
2023-05-16T16:44:01.693Z,20.20
2023-05-16T16:46:29.730Z,19.50
2023-05-16T16:48:57.715Z,19.70
2023-05-16T16:51:26.923Z,19.90
2023-05-16T16:53:54.860Z,19.70
2023-05-16T16:56:22.785Z,20.30
2023-05-16T16:58:53.248Z,19.80
2023-05-16T17:01:21.751Z,20.70
2023-05-16T17:03:49.796Z,20.90
2023-05-16T17:06:17.813Z,21.10
2023-05-16T17:08:46.398Z,22.80
2023-05-16T17:11:22.435Z,22.20
2023-05-16T17:13:51.279Z,21.90
2023-05-16T17:16:19.282Z,21.60
2023-05-16T17:18:47.304Z,20.90
2023-05-16T17:21:15.280Z,20.60
2023-05-16T17:23:44.281Z,22.30
2023-05-16T17:26:13.807Z,20.90
2023-05-16T17:28:41.770Z,21.40
2023-05-16T17:31:09.806Z,21.00
2023-05-16T17:33:38.155Z,20.90
2023-05-16T17:36:07.396Z,24.00
2023-05-16T17:38:35.568Z,22.70
2023-05-16T17:41:03.738Z,21.20
2023-05-16T17:43:31.745Z,23.60
2023-05-16T17:45:59.811Z,23.60
2023-05-16T17:48:27.961Z,22.80
2023-05-16T17:50:56.084Z,20.90
2023-05-16T17:53:24.808Z,21.70
2023-05-16T17:55:52.988Z,21.50
2023-05-16T17:58:21.048Z,21.50
2023-05-16T18:00:49.112Z,22.10
2023-05-16T18:03:17.578Z,21.30
2023-05-16T18:05:45.709Z,21.60
2023-05-16T18:08:13.827Z,20.80
2023-05-16T18:10:51.627Z,21.10
2023-05-16T18:13:22.152Z,21.00
2023-05-16T18:15:50.701Z,21.60
2023-05-16T18:18:18.888Z,21.70
2023-05-16T18:20:47.193Z,21.10
2023-05-16T18:23:15.155Z,20.10
2023-05-16T18:25:43.439Z,20.50
2023-05-16T18:28:11.526Z,20.90
2023-05-16T18:30:39.473Z,22.00
2023-05-16T18:33:07.712Z,21.20
2023-05-16T18:35:36.087Z,21.40
2023-05-16T18:38:04.243Z,22.50
2023-05-16T18:40:32.410Z,21.70
2023-05-16T18:43:00.606Z,21.60
2023-05-16T18:45:30.219Z,21.20
2023-05-16T18:47:58.675Z,21.60
2023-05-16T18:50:27.795Z,22.80
2023-05-16T18:52:57.623Z,21.00
2023-05-16T18:55:25.958Z,20.70
2023-05-16T18:57:54.476Z,21.80
2023-05-16T19:00:22.653Z,21.10
2023-05-16T19:02:51.144Z,20.10
2023-05-16T19:05:19.870Z,20.30
2023-05-16T19:07:50.767Z,19.30
2023-05-16T19:10:18.992Z,20.60
2023-05-16T19:12:49.052Z,19.60
2023-05-16T19:15:17.439Z,20.00
2023-05-16T19:17:47.587Z,19.90
2023-05-16T19:20:15.681Z,19.20
2023-05-16T19:22:44.077Z,19.60
2023-05-16T19:25:12.087Z,19.60
2023-05-16T19:27:40.309Z,19.70
2023-05-16T19:30:09.573Z,18.70
2023-05-16T19:32:38.025Z,18.30
2023-05-16T19:35:07.513Z,18.40
2023-05-16T19:37:35.846Z,17.70
2023-05-16T19:40:05.337Z,17.20
2023-05-16T19:42:34.555Z,18.10
2023-05-16T19:45:02.854Z,17.70
2023-05-16T19:47:31.459Z,17.60
2023-05-16T19:49:59.622Z,18.10
2023-05-16T19:52:27.759Z,19.00
2023-05-16T19:54:55.798Z,18.10
2023-05-16T19:57:23.935Z,18.70
2023-05-16T19:59:51.932Z,19.00
2023-05-16T20:02:21.316Z,17.80
2023-05-16T20:04:51.993Z,18.90
2023-05-16T20:07:20.155Z,17.80
2023-05-16T20:09:48.191Z,18.00
2023-05-16T20:12:16.388Z,17.20
2023-05-16T20:14:44.546Z,17.60
2023-05-16T20:17:12.645Z,16.50
2023-05-16T20:19:43.939Z,16.30
2023-05-16T20:22:12.281Z,16.70
2023-05-16T20:24:40.317Z,15.80
2023-05-16T20:27:08.262Z,15.50
2023-05-16T20:29:36.305Z,16.10
2023-05-16T20:32:04.779Z,15.60
2023-05-16T20:34:32.821Z,15.70
2023-05-16T20:37:00.909Z,15.00
2023-05-16T20:39:31.897Z,14.40
2023-05-16T20:42:02.055Z,13.90
2023-05-16T20:44:30.042Z,13.90
2023-05-16T20:46:58.374Z,14.70
2023-05-16T20:49:26.478Z,14.20
2023-05-16T20:51:55.164Z,14.30
2023-05-16T20:54:23.729Z,15.60
2023-05-16T20:56:51.747Z,14.90
2023-05-16T20:59:19.741Z,14.50
2023-05-16T21:01:47.856Z,14.60
2023-05-16T21:04:16.047Z,14.20
2023-05-16T21:06:44.667Z,13.80
2023-05-16T21:09:12.774Z,14.30
2023-05-16T21:11:40.686Z,13.80
2023-05-16T21:14:08.820Z,12.70
2023-05-16T21:16:36.780Z,13.10
2023-05-16T21:19:05.204Z,12.80
2023-05-16T21:21:33.349Z,11.40
2023-05-16T21:24:05.450Z,12.90
2023-05-16T21:26:33.491Z,12.20
2023-05-16T21:29:01.689Z,12.20
2023-05-16T21:31:29.714Z,12.10
2023-05-16T21:33:57.828Z,11.20
2023-05-16T21:36:26.064Z,11.30
2023-05-16T21:38:54.005Z,11.30
2023-05-16T21:41:22.386Z,11.00
2023-05-16T21:43:52.272Z,10.70
2023-05-16T21:46:20.372Z,11.20
2023-05-16T21:48:48.334Z,10.80
2023-05-16T21:51:16.300Z,10.50
2023-05-16T21:53:46.597Z,10.10
2023-05-16T21:56:14.724Z,10.40
2023-05-16T21:58:42.756Z,10.30
2023-05-16T22:01:13.750Z,10.20
2023-05-16T22:03:41.835Z,10.60
2023-05-16T22:06:10.005Z,10.80
2023-05-16T22:08:38.041Z,10.30
2023-05-16T22:11:06.169Z,10.30
2023-05-16T22:13:34.174Z,9.70
2023-05-16T22:16:04.952Z,9.70
2023-05-16T22:18:33.888Z,10.20
2023-05-16T22:21:02.203Z,10.30
2023-05-16T22:23:30.351Z,10.10
2023-05-16T22:25:58.416Z,9.70
2023-05-16T22:28:26.475Z,10.60
2023-05-16T22:30:54.528Z,10.30
2023-05-16T22:33:23.603Z,10.40
2023-05-16T22:35:51.623Z,11.70
2023-05-16T22:38:19.605Z,11.30
2023-05-16T22:40:47.511Z,10.30
2023-05-16T22:43:15.494Z,10.70
2023-05-16T22:45:43.601Z,10.80
2023-05-16T22:48:11.759Z,11.70
2023-05-16T22:50:39.981Z,11.40
2023-05-16T22:53:07.914Z,11.10
2023-05-16T22:55:35.963Z,10.40
2023-05-16T22:58:03.938Z,10.80
2023-05-16T23:00:31.921Z,10.30
2023-05-16T23:03:00.118Z,10.90
2023-05-16T23:05:28.272Z,10.30
2023-05-16T23:07:56.487Z,10.20
2023-05-16T23:10:24.463Z,9.70
2023-05-16T23:12:52.434Z,9.60
2023-05-16T23:15:20.427Z,8.80
2023-05-16T23:17:48.461Z,9.20
2023-05-16T23:20:16.546Z,9.10
2023-05-16T23:22:44.536Z,9.70
2023-05-16T23:25:12.494Z,8.50
2023-05-16T23:27:40.529Z,8.30
2023-05-16T23:30:09.448Z,8.50
2023-05-16T23:32:37.423Z,8.70
2023-05-16T23:35:06.114Z,7.90
2023-05-16T23:37:34.133Z,8.10
2023-05-16T23:40:02.185Z,7.50
2023-05-16T23:42:30.094Z,7.70
2023-05-16T23:44:58.090Z,7.30
2023-05-16T23:47:26.529Z,7.40
2023-05-16T23:49:54.651Z,7.40
2023-05-16T23:52:22.614Z,7.10
2023-05-16T23:54:50.604Z,7.20
2023-05-16T23:57:18.574Z,7.40
2023-05-16T23:59:46.543Z,7.90
